Time;durP1;ratioP1;P1;durP2;ratioP2;P2;SDS_P1;SDS_P2;PMS_P1;PMS_P2;Temp;Humidity;BMP_temperature;BMP_pressure;BME280_temperature;BME280_humidity;BME280_pressure;Samples;Min_cycle;Max_cycle;Signal;HPM_P1;HPM_P2
2022/12/06 00:01:21;;;;;;;463.90;73.78;;;0.60;99.90;;;;;;4973043;28;20039;-78
2022/12/06 00:03:52;;;;;;;462.38;80.20;;;0.60;99.90;;;;;;4982973;28;20132;-77
2022/12/06 00:06:21;;;;;;;493.70;78.45;;;0.50;99.90;;;;;;4983163;28;20042;-76
2022/12/06 00:08:49;;;;;;;649.15;92.90;;;0.50;99.90;;;;;;4981058;28;20077;-76
2022/12/06 00:11:24;;;;;;;582.63;89.43;;;0.50;99.90;;;;;;4986920;28;20042;-76
2022/12/06 00:13:53;;;;;;;529.88;82.65;;;0.50;99.90;;;;;;4984103;28;20068;-75
2022/12/06 00:16:19;;;;;;;680.75;96.72;;;0.50;99.90;;;;;;4980072;28;20054;-76
2022/12/06 00:18:47;;;;;;;478.33;80.80;;;0.50;99.90;;;;;;4977551;28;20230;-77
2022/12/06 00:21:13;;;;;;;430.38;73.43;;;0.50;99.90;;;;;;4980158;28;20213;-77
2022/12/06 00:23:46;;;;;;;578.78;88.57;;;0.40;99.90;;;;;;4991590;28;20042;-76
2022/12/06 00:26:14;;;;;;;615.03;89.72;;;0.50;99.90;;;;;;4971878;28;20049;-77
2022/12/06 00:28:41;;;;;;;629.45;91.15;;;0.50;99.90;;;;;;4992209;28;21317;-77
2022/12/06 00:31:12;;;;;;;571.60;84.55;;;0.50;99.90;;;;;;4976358;28;20046;-77
2022/12/06 00:33:38;;;;;;;598.72;91.47;;;0.60;99.90;;;;;;4971710;28;20175;-77
2022/12/06 00:36:09;;;;;;;723.75;107.35;;;0.60;99.90;;;;;;4987435;28;20057;-77
2022/12/06 00:38:35;;;;;;;582.25;83.78;;;0.50;99.90;;;;;;5001030;28;20058;-77
2022/12/06 00:41:11;;;;;;;595.90;90.18;;;0.50;99.90;;;;;;4977237;28;20056;-77
2022/12/06 00:43:38;;;;;;;596.90;94.38;;;0.50;99.90;;;;;;4986236;28;20042;-76
2022/12/06 00:46:09;;;;;;;683.72;104.90;;;0.50;99.90;;;;;;4985636;28;20417;-75
2022/12/06 00:48:36;;;;;;;525.05;88.88;;;0.50;99.90;;;;;;5002255;28;20060;-77
2022/12/06 00:51:03;;;;;;;727.78;105.25;;;0.50;99.90;;;;;;4987330;28;20529;-76
2022/12/06 00:53:30;;;;;;;627.95;92.35;;;0.50;99.90;;;;;;4983109;28;20049;-77
2022/12/06 00:55:56;;;;;;;645.85;98.47;;;0.60;99.90;;;;;;4978412;28;20034;-76
2022/12/06 00:58:23;;;;;;;938.58;137.07;;;0.60;99.90;;;;;;4983817;28;20666;-77
2022/12/06 01:00:50;;;;;;;665.03;98.63;;;0.50;99.90;;;;;;4992807;28;20038;-78
2022/12/06 01:03:17;;;;;;;625.92;96.45;;;0.50;99.90;;;;;;4985795;28;20431;-76
2022/12/06 01:05:49;;;;;;;546.25;87.00;;;0.50;99.90;;;;;;5002800;28;20052;-77
2022/12/06 01:08:17;;;;;;;604.25;83.80;;;0.60;99.90;;;;;;4984506;28;20526;-77
2022/12/06 01:10:53;;;;;;;616.17;94.93;;;0.60;99.90;;;;;;4993788;28;20068;-77
2022/12/06 01:13:20;;;;;;;604.72;89.45;;;0.50;99.90;;;;;;5000078;28;20050;-75
2022/12/06 01:15:47;;;;;;;559.28;86.32;;;0.40;99.90;;;;;;4987251;28;20053;-75
2022/12/06 01:18:14;;;;;;;572.45;91.53;;;0.50;99.90;;;;;;4996515;28;20395;-77
2022/12/06 01:20:41;;;;;;;551.88;86.53;;;0.40;99.90;;;;;;5001347;28;20534;-77
2022/12/06 01:23:07;;;;;;;616.40;89.57;;;0.50;99.90;;;;;;4976142;28;20060;-75
2022/12/06 01:25:34;;;;;;;603.10;86.72;;;0.40;99.90;;;;;;4981635;28;20048;-77
2022/12/06 01:28:02;;;;;;;525.15;83.95;;;0.40;99.90;;;;;;4976241;28;20050;-76
2022/12/06 01:30:29;;;;;;;622.50;89.85;;;0.40;99.90;;;;;;4990913;28;20050;-77
2022/12/06 01:32:56;;;;;;;625.35;87.13;;;0.40;99.90;;;;;;4977682;28;20061;-78
2022/12/06 01:35:23;;;;;;;593.50;93.22;;;0.40;99.90;;;;;;4976990;28;20050;-77
2022/12/06 01:37:49;;;;;;;510.08;86.32;;;0.30;99.90;;;;;;4958947;28;20039;-76
2022/12/06 01:40:16;;;;;;;492.00;83.03;;;0.40;99.90;;;;;;4998161;28;20041;-75
2022/12/06 01:42:42;;;;;;;534.03;84.20;;;0.40;99.90;;;;;;4982952;28;20069;-75
2022/12/06 01:45:09;;;;;;;456.60;76.28;;;0.40;99.90;;;;;;5000485;28;20026;-75
2022/12/06 01:47:42;;;;;;;566.20;94.07;;;0.40;99.90;;;;;;4981999;28;20046;-76
2022/12/06 01:50:11;;;;;;;472.92;81.07;;;0.50;99.90;;;;;;4986054;28;20030;-79
2022/12/06 01:53:05;;;;;;;433.27;74.45;;;0.40;99.90;;;;;;4987307;28;20034;-76
2022/12/06 01:55:36;;;;;;;467.27;75.07;;;0.40;99.90;;;;;;4985294;28;20060;-75
2022/12/06 01:58:11;;;;;;;382.40;72.80;;;0.40;99.90;;;;;;5010964;28;20046;-76
2022/12/06 02:00:38;;;;;;;474.98;77.82;;;0.40;99.90;;;;;;5014601;28;20149;-75
2022/12/06 02:03:09;;;;;;;487.02;84.70;;;0.40;99.90;;;;;;4997189;28;20038;-75
2022/12/06 02:05:37;;;;;;;486.10;81.13;;;0.40;99.90;;;;;;5006587;28;20037;-78
2022/12/06 02:08:08;;;;;;;390.40;69.75;;;0.40;99.90;;;;;;4994047;28;20045;-77
2022/12/06 02:10:36;;;;;;;374.80;67.15;;;0.40;99.90;;;;;;4979375;28;20138;-75
2022/12/06 02:13:02;;;;;;;403.15;69.28;;;0.50;99.90;;;;;;4993327;28;20046;-80
2022/12/06 02:15:57;;;;;;;455.63;80.55;;;0.50;99.90;;;;;;4996598;28;20054;-77
2022/12/06 02:18:53;;;;;;;403.40;71.43;;;0.50;99.90;;;;;;4998731;28;20038;-77
2022/12/06 02:21:37;;;;;;;388.40;68.78;;;0.50;99.90;;;;;;4994342;28;20045;-75
2022/12/06 02:24:37;;;;;;;416.35;76.57;;;0.40;99.90;;;;;;5005549;28;20057;-76
2022/12/06 02:27:23;;;;;;;457.92;69.03;;;0.40;99.90;;;;;;4990862;28;20073;-76
2022/12/06 02:30:33;;;;;;;358.55;68.63;;;0.40;99.90;;;;;;4979416;28;20056;-77
2022/12/06 02:33:29;;;;;;;360.13;61.50;;;0.40;99.90;;;;;;4984135;28;20038;-74
2022/12/06 02:36:11;;;;;;;386.73;70.43;;;0.40;99.90;;;;;;5000618;28;20041;-76
2022/12/06 02:38:50;;;;;;;356.08;66.75;;;0.50;99.90;;;;;;4986617;28;20046;-78
2022/12/06 02:41:40;;;;;;;229.23;55.67;;;0.50;99.90;;;;;;5001918;28;20494;-77
2022/12/06 02:44:13;;;;;;;241.65;51.10;;;0.50;99.90;;;;;;4980361;28;20046;-76
2022/12/06 02:46:42;;;;;;;220.52;51.88;;;0.50;99.90;;;;;;5000062;28;20054;-76
2022/12/06 02:49:10;;;;;;;205.60;49.92;;;0.50;99.90;;;;;;4985826;28;20044;-78
2022/12/06 02:51:38;;;;;;;204.73;50.58;;;0.50;99.90;;;;;;4988011;28;20037;-78
2022/12/06 02:54:08;;;;;;;218.90;51.60;;;0.60;99.90;;;;;;4984917;28;20056;-78
2022/12/06 02:56:35;;;;;;;224.32;54.35;;;0.60;99.90;;;;;;4981939;28;20114;-75
2022/12/06 02:59:02;;;;;;;210.52;53.15;;;0.70;99.90;;;;;;4987124;28;20069;-78
2022/12/06 03:01:31;;;;;;;222.77;55.58;;;0.70;99.90;;;;;;4983076;28;20138;-78
2022/12/06 03:04:30;;;;;;;248.85;60.38;;;0.60;99.90;;;;;;4963139;28;20349;-81
2022/12/06 03:07:00;;;;;;;279.88;62.47;;;0.60;99.90;;;;;;4978209;28;20129;-78
2022/12/06 03:09:52;;;;;;;381.65;68.38;;;0.70;99.90;;;;;;4977115;28;20050;-78
2022/12/06 03:12:49;;;;;;;294.58;62.63;;;0.60;99.90;;;;;;4985427;28;20085;-79
2022/12/06 03:15:22;;;;;;;242.18;55.83;;;0.60;99.90;;;;;;4980820;28;20491;-77
2022/12/06 03:18:00;;;;;;;275.55;62.78;;;0.60;99.90;;;;;;4982229;28;20576;-80
2022/12/06 03:20:41;;;;;;;346.45;70.72;;;0.60;99.90;;;;;;4992490;28;20054;-80
2022/12/06 03:23:13;;;;;;;198.23;54.47;;;0.60;99.90;;;;;;4967863;28;20045;-78
2022/12/06 03:25:42;;;;;;;280.02;61.78;;;0.60;99.90;;;;;;4996758;28;20038;-78
2022/12/06 03:28:11;;;;;;;243.75;56.67;;;0.70;99.90;;;;;;4979709;28;20049;-78
2022/12/06 03:30:41;;;;;;;231.45;58.78;;;0.70;99.90;;;;;;4978586;28;20505;-77
2022/12/06 03:33:10;;;;;;;273.80;59.60;;;0.70;99.90;;;;;;4989601;28;20046;-78
2022/12/06 03:35:37;;;;;;;231.68;57.38;;;0.70;99.90;;;;;;4975622;28;20542;-80
2022/12/06 03:38:08;;;;;;;306.42;62.28;;;0.70;99.90;;;;;;5001649;28;20052;-78
2022/12/06 03:40:38;;;;;;;267.05;59.58;;;0.70;99.90;;;;;;4981470;28;20048;-78
2022/12/06 03:43:05;;;;;;;316.45;68.00;;;0.70;99.90;;;;;;4969430;28;20056;-79
2022/12/06 03:45:41;;;;;;;310.13;65.25;;;0.70;99.90;;;;;;4994704;28;20076;-77
2022/12/06 03:48:24;;;;;;;352.05;72.20;;;0.70;99.90;;;;;;4996522;28;20037;-77
2022/12/06 03:50:56;;;;;;;389.00;73.95;;;0.60;99.90;;;;;;4991686;28;20038;-79
2022/12/06 03:53:25;;;;;;;265.88;61.53;;;0.60;99.90;;;;;;4981594;28;20072;-79
2022/12/06 03:55:51;;;;;;;258.13;61.60;;;0.70;99.90;;;;;;4962762;28;20035;-79
2022/12/06 03:58:18;;;;;;;179.65;52.30;;;0.70;99.90;;;;;;4981454;28;20133;-78
2022/12/06 04:00:45;;;;;;;173.55;52.17;;;0.70;99.90;;;;;;4983883;28;20042;-78
2022/12/06 04:03:12;;;;;;;152.98;46.72;;;0.70;99.90;;;;;;5000225;28;20474;-80
2022/12/06 04:05:38;;;;;;;196.30;57.03;;;0.60;99.90;;;;;;4964147;28;20098;-78
2022/12/06 04:08:05;;;;;;;178.23;50.72;;;0.60;99.90;;;;;;4999797;28;20557;-79
2022/12/06 04:10:32;;;;;;;232.20;55.00;;;0.60;99.90;;;;;;4981132;28;20047;-77
2022/12/06 04:12:59;;;;;;;234.85;55.70;;;0.60;99.90;;;;;;4983076;28;20052;-79
2022/12/06 04:15:29;;;;;;;132.93;47.50;;;0.60;99.90;;;;;;4981584;28;20053;-79
2022/12/06 04:18:09;;;;;;;99.82;42.58;;;0.70;99.90;;;;;;5014481;28;20034;-78
2022/12/06 04:23:30;;;;;;;92.78;38.63;;;0.60;99.90;;;;;;4974491;28;20073;-79
2022/12/06 04:25:57;;;;;;;104.90;41.08;;;0.60;99.90;;;;;;5002097;28;20038;-79
2022/12/06 04:39:25;;;;;;;80.78;35.80;;;0.60;99.90;;;;;;4981960;28;19927;-79
2022/12/06 04:44:37;;;;;;;105.07;40.67;;;0.60;99.90;;;;;;4993245;28;20058;-78
2022/12/06 04:47:05;;;;;;;104.93;40.50;;;0.70;99.90;;;;;;4977510;28;20039;-78
2022/12/06 04:49:32;;;;;;;93.13;38.42;;;0.60;99.90;;;;;;4978207;28;20117;-78
2022/12/06 04:51:58;;;;;;;94.50;40.28;;;0.60;99.90;;;;;;4982962;28;20278;-77
2022/12/06 04:54:26;;;;;;;76.85;37.78;;;0.60;99.90;;;;;;4994433;28;20050;-77
2022/12/06 04:56:52;;;;;;;90.55;37.17;;;0.60;99.90;;;;;;4983840;28;20039;-76
2022/12/06 04:59:19;;;;;;;87.35;39.72;;;0.60;99.90;;;;;;4961585;28;20499;-77
2022/12/06 05:01:46;;;;;;;91.55;38.85;;;0.50;99.90;;;;;;4991357;28;20302;-77
2022/12/06 05:04:13;;;;;;;87.18;38.35;;;0.60;99.90;;;;;;4966798;28;20093;-76
2022/12/06 05:06:39;;;;;;;83.63;36.15;;;0.60;99.90;;;;;;4994412;28;20116;-78
2022/12/06 05:09:06;;;;;;;78.70;35.80;;;0.60;99.90;;;;;;5014494;28;20298;-76
2022/12/06 05:11:33;;;;;;;75.32;34.65;;;0.60;99.90;;;;;;5007939;28;20034;-76
2022/12/06 05:14:00;;;;;;;79.68;39.08;;;0.50;99.90;;;;;;4972542;28;20066;-78
2022/12/06 05:16:27;;;;;;;85.68;37.80;;;0.50;99.90;;;;;;4974841;28;20056;-76
2022/12/06 05:18:54;;;;;;;78.10;38.17;;;0.50;99.90;;;;;;4985318;28;20050;-78
2022/12/06 05:21:22;;;;;;;62.22;32.72;;;0.60;99.90;;;;;;4983703;28;20654;-78
2022/12/06 05:23:53;;;;;;;73.07;36.88;;;0.50;99.90;;;;;;4983231;28;20137;-77
2022/12/06 05:26:21;;;;;;;71.18;34.50;;;0.50;99.90;;;;;;4972553;28;20047;-77
2022/12/06 05:28:48;;;;;;;65.45;32.80;;;0.60;99.90;;;;;;4983306;28;20041;-79
2022/12/06 05:31:16;;;;;;;74.05;35.55;;;0.60;99.90;;;;;;4980283;28;20042;-80
2022/12/06 05:33:43;;;;;;;68.50;32.83;;;0.60;99.90;;;;;;4996746;28;20048;-79
2022/12/06 05:36:13;;;;;;;78.57;34.55;;;0.60;99.90;;;;;;4963139;28;20491;-78
2022/12/06 05:38:40;;;;;;;79.68;37.47;;;0.60;99.90;;;;;;4975933;28;20042;-78
2022/12/06 05:41:07;;;;;;;93.82;40.13;;;0.60;99.90;;;;;;4973728;28;20068;-77
2022/12/06 05:43:34;;;;;;;103.50;39.78;;;0.50;99.90;;;;;;4973847;28;20049;-78
2022/12/06 05:46:00;;;;;;;115.93;43.30;;;0.50;99.90;;;;;;4961212;28;20114;-78
2022/12/06 05:48:27;;;;;;;186.68;48.72;;;0.50;99.90;;;;;;4979810;28;20045;-79
2022/12/06 05:50:54;;;;;;;195.73;48.30;;;0.50;99.90;;;;;;4975562;28;20038;-76
2022/12/06 05:53:21;;;;;;;171.63;49.60;;;0.50;99.90;;;;;;4972454;28;20043;-76
2022/12/06 05:55:48;;;;;;;224.90;54.67;;;0.50;99.90;;;;;;4977724;28;20045;-76
2022/12/06 05:58:15;;;;;;;156.27;48.08;;;0.50;99.90;;;;;;4976836;28;20042;-77
2022/12/06 06:00:45;;;;;;;171.02;49.42;;;0.60;99.90;;;;;;4968587;28;20468;-77
2022/12/06 06:03:12;;;;;;;192.65;49.47;;;0.60;99.90;;;;;;4977610;28;20069;-78
2022/12/06 06:05:48;;;;;;;219.50;54.72;;;0.60;99.90;;;;;;4982002;28;20125;-77
2022/12/06 06:08:16;;;;;;;247.15;50.58;;;0.70;99.90;;;;;;4959140;28;20053;-79
2022/12/06 06:10:44;;;;;;;227.63;54.20;;;0.70;99.90;;;;;;4994652;28;20606;-77
2022/12/06 06:13:11;;;;;;;344.58;65.55;;;0.60;99.90;;;;;;4984217;28;20145;-77
2022/12/06 06:15:37;;;;;;;340.52;64.28;;;0.60;99.90;;;;;;4975214;28;20050;-77
2022/12/06 06:18:04;;;;;;;407.58;64.38;;;0.60;99.90;;;;;;4984657;28;20139;-77
2022/12/06 06:20:31;;;;;;;363.10;62.72;;;0.50;99.90;;;;;;4967454;28;20042;-79
2022/12/06 06:22:57;;;;;;;271.80;52.83;;;0.60;99.90;;;;;;4972495;28;20053;-77
2022/12/06 06:25:24;;;;;;;462.85;74.07;;;0.60;99.90;;;;;;4973511;28;20119;-77
2022/12/06 06:27:52;;;;;;;340.30;71.97;;;0.60;99.90;;;;;;4956789;28;20044;-79
2022/12/06 06:30:19;;;;;;;423.42;70.68;;;0.70;99.90;;;;;;4974565;28;20157;-79
2022/12/06 06:32:45;;;;;;;365.33;64.82;;;0.60;99.90;;;;;;4990116;28;20050;-79
2022/12/06 06:35:12;;;;;;;470.90;73.47;;;0.70;99.90;;;;;;4979994;28;20639;-79
2022/12/06 06:37:39;;;;;;;422.30;73.30;;;0.60;99.90;;;;;;4957340;28;20043;-78
2022/12/06 06:40:06;;;;;;;312.73;62.58;;;0.60;99.90;;;;;;4973377;28;20092;-79
2022/12/06 06:42:33;;;;;;;512.25;78.88;;;0.60;99.90;;;;;;4980484;28;20137;-78
2022/12/06 06:44:59;;;;;;;343.08;63.95;;;0.60;99.90;;;;;;4973145;28;20034;-78
2022/12/06 06:47:26;;;;;;;408.45;67.05;;;0.70;99.90;;;;;;4970000;28;20061;-78
2022/12/06 06:49:52;;;;;;;358.38;61.80;;;0.70;99.90;;;;;;4976659;28;20070;-79
2022/12/06 06:52:19;;;;;;;387.60;62.05;;;0.60;99.90;;;;;;5009194;28;20042;-79
2022/12/06 06:54:46;;;;;;;299.77;54.40;;;0.70;99.90;;;;;;4976462;28;20335;-79
2022/12/06 06:57:13;;;;;;;417.88;69.03;;;0.70;99.90;;;;;;4993986;28;20038;-79
2022/12/06 06:59:44;;;;;;;399.27;64.40;;;0.70;99.90;;;;;;4973228;28;20077;-79
2022/12/06 07:02:12;;;;;;;228.65;48.47;;;0.80;99.90;;;;;;4971554;28;20049;-80
2022/12/06 07:04:39;;;;;;;262.02;49.03;;;0.80;99.90;;;;;;4976535;28;20046;-79
2022/12/06 07:07:06;;;;;;;269.63;51.08;;;0.70;99.90;;;;;;4978333;28;20033;-79
2022/12/06 07:09:33;;;;;;;229.77;45.63;;;0.80;99.90;;;;;;4977867;28;20053;-79
2022/12/06 07:12:00;;;;;;;261.02;53.03;;;0.80;99.90;;;;;;4996643;28;20125;-79
2022/12/06 07:14:27;;;;;;;296.48;52.10;;;0.80;99.90;;;;;;4974713;28;20038;-78
2022/12/06 07:16:54;;;;;;;192.57;45.03;;;0.80;99.90;;;;;;4985180;28;20042;-79
2022/12/06 07:19:20;;;;;;;168.70;43.63;;;0.80;99.90;;;;;;4975983;28;20094;-77
2022/12/06 07:21:47;;;;;;;181.68;47.85;;;0.80;99.90;;;;;;4974474;28;20078;-77
2022/12/06 07:24:14;;;;;;;374.15;59.42;;;0.90;99.90;;;;;;4975465;28;20042;-77
2022/12/06 07:26:41;;;;;;;177.57;45.95;;;0.90;99.90;;;;;;4987069;28;20436;-78
2022/12/06 07:29:07;;;;;;;386.30;66.35;;;0.90;99.90;;;;;;4960456;28;20146;-77
2022/12/06 07:31:34;;;;;;;234.70;51.88;;;0.90;99.90;;;;;;4985715;28;20496;-77
2022/12/06 07:34:02;;;;;;;164.85;44.42;;;0.90;99.90;;;;;;4971592;28;20048;-77
2022/12/06 07:36:30;;;;;;;231.15;49.50;;;0.90;99.90;;;;;;4975511;28;20051;-76
2022/12/06 07:38:58;;;;;;;147.82;41.83;;;1.00;99.90;;;;;;4978049;28;20045;-77
2022/12/06 07:47:40;;;;;;;174.05;46.45;;;1.00;99.90;;;;;;4969075;28;20073;-77
2022/12/06 07:50:15;;;;;;;142.48;41.08;;;1.00;99.90;;;;;;4964432;28;20042;-77
2022/12/06 07:52:45;;;;;;;161.07;44.78;;;1.10;99.90;;;;;;4958106;28;20042;-77
2022/12/06 07:55:13;;;;;;;154.27;47.35;;;1.10;99.90;;;;;;4969465;28;20280;-78
2022/12/06 07:57:39;;;;;;;192.45;52.05;;;1.10;99.90;;;;;;4991405;28;20081;-78
2022/12/06 08:00:13;;;;;;;180.30;43.78;;;1.10;99.90;;;;;;4981564;28;20064;-76
2022/12/06 08:02:40;;;;;;;216.23;45.83;;;1.10;99.90;;;;;;4993047;28;20046;-77
2022/12/06 08:05:07;;;;;;;337.38;64.95;;;1.10;99.90;;;;;;4969955;28;20065;-77
2022/12/06 08:07:34;;;;;;;261.02;56.22;;;1.10;99.90;;;;;;4985869;28;20042;-78
2022/12/06 08:10:00;;;;;;;297.65;52.13;;;1.20;99.90;;;;;;4967880;28;20037;-77
2022/12/06 08:12:31;;;;;;;345.30;56.53;;;1.10;99.90;;;;;;4972298;28;20128;-78
2022/12/06 08:14:58;;;;;;;325.02;57.80;;;1.20;99.90;;;;;;4973816;28;20042;-78
2022/12/06 08:17:26;;;;;;;203.02;51.30;;;1.20;99.90;;;;;;4979952;28;20045;-78
2022/12/06 08:19:53;;;;;;;256.38;50.92;;;1.20;99.90;;;;;;4987471;28;20399;-78
2022/12/06 08:22:20;;;;;;;234.10;47.40;;;1.20;99.90;;;;;;4975150;28;20097;-78
2022/12/06 08:24:46;;;;;;;166.25;38.25;;;1.20;99.90;;;;;;4971019;28;20050;-78
2022/12/06 08:27:13;;;;;;;208.07;45.55;;;1.30;99.90;;;;;;4965985;28;20046;-76
2022/12/06 08:29:40;;;;;;;137.75;38.72;;;1.20;99.90;;;;;;4983900;28;20031;-78
2022/12/06 08:32:07;;;;;;;276.23;53.05;;;1.20;99.90;;;;;;4969436;28;20038;-78
2022/12/06 08:34:33;;;;;;;137.48;38.88;;;1.30;99.90;;;;;;4968512;28;20137;-75
2022/12/06 08:37:00;;;;;;;186.75;41.00;;;1.30;99.90;;;;;;4980270;28;20030;-76
2022/12/06 08:39:29;;;;;;;206.50;43.03;;;1.30;99.90;;;;;;4983339;28;20120;-77
2022/12/06 08:41:59;;;;;;;152.13;40.03;;;1.30;99.90;;;;;;4975136;28;20057;-78
2022/12/06 08:44:27;;;;;;;165.65;39.50;;;1.30;99.90;;;;;;4991254;28;20411;-78
2022/12/06 08:46:55;;;;;;;205.15;44.08;;;1.20;99.90;;;;;;4988688;28;20042;-78
2022/12/06 08:49:23;;;;;;;142.98;38.90;;;1.20;99.90;;;;;;4971770;28;20076;-78
2022/12/06 08:51:50;;;;;;;527.17;72.38;;;1.20;99.90;;;;;;4987517;28;20077;-78
2022/12/06 08:54:20;;;;;;;501.67;79.93;;;1.20;99.90;;;;;;4990403;28;20052;-79
2022/12/06 08:56:47;;;;;;;265.05;49.50;;;1.20;99.90;;;;;;4976407;28;20374;-77
2022/12/06 08:59:14;;;;;;;237.80;53.22;;;1.20;99.90;;;;;;4977976;28;20041;-77
2022/12/06 09:01:42;;;;;;;235.00;49.53;;;1.20;99.90;;;;;;4973511;28;20055;-77
2022/12/06 09:04:10;;;;;;;192.40;42.70;;;1.30;99.90;;;;;;4996895;28;20116;-77
2022/12/06 09:06:42;;;;;;;187.90;43.55;;;1.40;99.90;;;;;;4965571;28;20753;-77
2022/12/06 09:09:10;;;;;;;244.40;45.72;;;1.40;99.90;;;;;;4996995;28;20056;-77
2022/12/06 09:11:39;;;;;;;144.45;38.92;;;1.40;99.90;;;;;;4978228;28;20046;-79
2022/12/06 09:14:08;;;;;;;290.05;50.92;;;1.40;99.90;;;;;;4951672;28;20049;-78
2022/12/06 09:16:34;;;;;;;187.20;41.45;;;1.40;99.90;;;;;;4974732;28;20618;-80
2022/12/06 09:19:02;;;;;;;681.92;99.20;;;1.40;99.90;;;;;;4983433;28;20048;-79
2022/12/06 09:21:29;;;;;;;317.08;60.58;;;1.30;99.90;;;;;;4979897;28;20110;-79
2022/12/06 09:23:56;;;;;;;114.53;35.70;;;1.40;99.90;;;;;;4993599;28;20069;-78
2022/12/06 09:26:24;;;;;;;136.57;42.78;;;1.40;99.90;;;;;;4981284;28;20141;-79
2022/12/06 09:28:53;;;;;;;149.95;41.83;;;1.50;99.90;;;;;;4985815;28;20046;-80
2022/12/06 09:31:20;;;;;;;136.10;39.15;;;1.60;99.90;;;;;;4976036;28;20260;-80
2022/12/06 09:33:47;;;;;;;380.02;59.53;;;1.50;99.90;;;;;;4995153;28;20047;-79
2022/12/06 09:36:23;;;;;;;186.27;44.00;;;1.50;99.90;;;;;;4986859;28;20130;-81
2022/12/06 09:38:59;;;;;;;131.05;38.72;;;1.50;99.90;;;;;;4981362;28;20045;-79
2022/12/06 09:41:43;;;;;;;324.88;57.03;;;1.40;99.90;;;;;;4986080;28;20499;-80
2022/12/06 09:44:45;;;;;;;407.15;71.40;;;1.50;99.90;;;;;;4981590;28;20042;-77
2022/12/06 09:47:33;;;;;;;235.23;54.15;;;1.50;99.90;;;;;;5001806;28;20054;-81
2022/12/06 09:50:07;;;;;;;194.85;54.17;;;1.50;99.90;;;;;;4974981;28;20206;-79
2022/12/06 09:52:43;;;;;;;375.98;69.07;;;1.60;99.90;;;;;;4979657;28;20496;-79
2022/12/06 09:55:38;;;;;;;230.45;53.15;;;1.60;99.90;;;;;;5000845;28;20048;-80
2022/12/06 09:58:43;;;;;;;392.80;68.30;;;1.60;99.90;;;;;;4974428;28;20097;-79
2022/12/06 10:01:23;;;;;;;389.10;63.47;;;1.50;99.90;;;;;;4971344;28;20589;-79
2022/12/06 10:03:52;;;;;;;371.85;66.80;;;1.50;99.90;;;;;;4996150;28;20428;-78
2022/12/06 10:06:22;;;;;;;306.00;59.45;;;1.50;99.90;;;;;;4988256;28;20053;-79
2022/12/06 10:08:49;;;;;;;236.15;50.13;;;1.60;99.90;;;;;;5001600;28;20042;-78
2022/12/06 10:11:42;;;;;;;521.60;77.50;;;1.60;99.90;;;;;;4993841;28;20125;-79
2022/12/06 10:14:33;;;;;;;215.93;47.25;;;1.60;99.90;;;;;;4989473;28;20062;-79
2022/12/06 10:17:27;;;;;;;555.35;82.20;;;1.70;99.90;;;;;;4989958;28;20053;-79
2022/12/06 10:20:22;;;;;;;229.43;49.75;;;1.80;99.90;;;;;;4977030;28;20062;-81
2022/12/06 10:23:07;;;;;;;171.57;46.95;;;1.80;99.90;;;;;;4978359;28;20122;-79
2022/12/06 10:25:41;;;;;;;283.70;52.97;;;1.80;99.90;;;;;;4978242;28;20065;-82
2022/12/06 10:28:19;;;;;;;204.67;45.37;;;1.90;99.90;;;;;;4974681;28;20045;-79
2022/12/06 10:30:58;;;;;;;262.73;46.05;;;1.80;99.90;;;;;;4974661;28;20138;-79
2022/12/06 10:33:49;;;;;;;239.65;47.60;;;1.80;99.90;;;;;;4984337;28;20054;-80
2022/12/06 10:36:25;;;;;;;227.73;43.30;;;1.80;99.90;;;;;;4969913;28;20408;-79
2022/12/06 10:38:57;;;;;;;265.98;55.20;;;1.80;99.90;;;;;;4979313;28;20099;-78
2022/12/06 10:41:31;;;;;;;520.67;74.88;;;1.70;99.90;;;;;;4995633;28;20410;-80
2022/12/06 10:44:33;;;;;;;173.20;41.50;;;1.70;99.90;;;;;;4985157;28;20376;-79
2022/12/06 10:47:19;;;;;;;192.90;42.70;;;1.80;99.90;;;;;;4984478;28;20065;-79
2022/12/06 10:50:25;;;;;;;176.68;42.15;;;1.80;99.90;;;;;;4977283;28;20052;-80
2022/12/06 10:53:02;;;;;;;165.38;41.10;;;1.90;99.90;;;;;;4977692;28;20039;-80
2022/12/06 10:55:39;;;;;;;185.50;40.30;;;1.90;99.90;;;;;;4989345;28;20129;-79
2022/12/06 10:58:28;;;;;;;230.48;45.90;;;1.80;99.90;;;;;;4981759;28;20117;-80
2022/12/06 11:01:02;;;;;;;252.52;47.30;;;1.80;99.90;;;;;;4979092;28;20050;-80
2022/12/06 11:03:42;;;;;;;317.92;51.58;;;1.80;99.90;;;;;;4982983;28;20038;-80
2022/12/06 11:06:34;;;;;;;320.38;54.08;;;1.80;99.90;;;;;;4987366;28;20038;-81
2022/12/06 11:09:29;;;;;;;216.23;41.50;;;1.80;99.90;;;;;;4979822;28;20045;-81
2022/12/06 11:11:56;;;;;;;237.68;45.85;;;1.80;99.90;;;;;;4987610;28;20045;-80
2022/12/06 11:14:34;;;;;;;414.13;63.20;;;1.90;99.90;;;;;;4979193;28;20061;-80
2022/12/06 11:17:14;;;;;;;256.15;45.95;;;1.90;99.90;;;;;;4963950;28;20052;-80
2022/12/06 11:19:50;;;;;;;240.38;39.78;;;1.90;99.90;;;;;;4976464;28;20049;-81
2022/12/06 11:22:36;;;;;;;336.50;54.65;;;2.00;99.90;;;;;;4999097;28;20034;-83
2022/12/06 11:25:19;;;;;;;304.85;54.13;;;1.90;99.90;;;;;;4981303;28;20089;-81
2022/12/06 11:27:54;;;;;;;366.25;56.38;;;2.00;99.90;;;;;;4972253;28;20484;-82
2022/12/06 11:30:21;;;;;;;389.35;56.05;;;2.00;99.90;;;;;;4958636;28;20050;-81
2022/12/06 11:32:50;;;;;;;366.20;58.20;;;2.10;99.90;;;;;;4950106;28;20143;-81
2022/12/06 11:35:22;;;;;;;364.63;56.05;;;2.00;99.90;;;;;;4976511;28;20125;-81
2022/12/06 11:37:59;;;;;;;433.95;65.40;;;1.90;99.90;;;;;;4982205;28;20053;-85
2022/12/06 11:40:32;;;;;;;461.95;72.22;;;1.80;99.90;;;;;;4977049;28;20042;-80
2022/12/06 11:43:03;;;;;;;488.50;69.78;;;1.80;99.90;;;;;;4982286;28;20421;-79
2022/12/06 11:45:38;;;;;;;466.67;65.10;;;1.90;99.90;;;;;;4974547;28;20507;-85
2022/12/06 11:48:19;;;;;;;;;;;1.90;99.90;;;;;;4974265;28;20046;-84
2022/12/06 11:50:48;;;;;;;440.80;67.63;;;2.00;99.90;;;;;;4990104;28;19928;-84
2022/12/06 11:53:35;;;;;;;540.85;81.45;;;2.00;99.90;;;;;;4976687;28;20054;-85
2022/12/06 11:56:10;;;;;;;332.17;57.33;;;2.00;99.90;;;;;;4970137;28;20098;-85
2022/12/06 11:58:45;;;;;;;312.00;56.40;;;2.10;99.90;;;;;;4973528;28;20045;-83
2022/12/06 12:01:13;;;;;;;493.25;71.13;;;2.20;99.90;;;;;;4978045;28;20047;-83
2022/12/06 12:03:42;;;;;;;326.20;57.08;;;2.20;99.90;;;;;;4977056;28;20050;-83
2022/12/06 12:06:26;;;;;;;414.85;66.47;;;2.20;99.90;;;;;;4961237;28;20048;-82
2022/12/06 12:09:06;;;;;;;223.40;44.80;;;2.10;99.90;;;;;;4974568;28;20037;-81
2022/12/06 12:11:44;;;;;;;296.80;62.67;;;2.20;99.90;;;;;;4978304;28;20039;-81
2022/12/06 12:14:29;;;;;;;254.93;52.95;;;2.20;99.90;;;;;;4985917;28;20523;-81
2022/12/06 12:16:59;;;;;;;225.77;44.10;;;2.30;99.90;;;;;;4977001;28;20051;-81
2022/12/06 12:19:45;;;;;;;174.88;41.00;;;2.20;99.90;;;;;;4972404;28;20336;-80
2022/12/06 12:22:19;;;;;;;273.65;48.03;;;2.20;99.90;;;;;;4989468;28;20049;-81
2022/12/06 12:25:18;;;;;;;280.58;50.15;;;2.20;99.90;;;;;;4996643;28;20160;-80
2022/12/06 12:27:57;;;;;;;244.20;41.92;;;2.30;99.90;;;;;;4964385;28;20054;-81
2022/12/06 12:30:28;;;;;;;258.33;45.20;;;2.20;99.90;;;;;;4957309;28;20046;-81
2022/12/06 12:33:04;;;;;;;307.48;50.45;;;2.20;99.90;;;;;;4980657;28;20042;-79
2022/12/06 12:35:36;;;;;;;326.38;55.53;;;2.30;99.90;;;;;;4996874;28;20048;-80
2022/12/06 12:38:09;;;;;;;320.95;51.78;;;2.30;99.90;;;;;;4977488;28;20042;-81
2022/12/06 12:40:38;;;;;;;363.98;50.47;;;2.20;99.90;;;;;;4983945;28;20050;-81
2022/12/06 12:43:14;;;;;;;612.33;81.43;;;2.20;99.90;;;;;;4985430;28;20117;-80
2022/12/06 12:46:09;;;;;;;429.67;62.25;;;2.10;99.90;;;;;;4974522;28;20043;-80
2022/12/06 12:48:39;;;;;;;349.95;53.13;;;2.10;99.90;;;;;;4975609;28;20073;-80
2022/12/06 12:51:31;;;;;;;540.88;70.22;;;2.00;99.90;;;;;;4972596;28;20049;-80
2022/12/06 12:54:18;;;;;;;459.58;59.13;;;2.10;99.90;;;;;;4979503;28;20100;-81
2022/12/06 12:56:45;;;;;;;539.47;71.40;;;2.10;99.90;;;;;;4978477;28;20074;-79
2022/12/06 12:59:15;;;;;;;654.08;87.40;;;2.10;99.90;;;;;;4981013;28;20133;-79
2022/12/06 13:02:02;;;;;;;459.45;60.47;;;2.20;99.90;;;;;;4982151;28;20043;-79
2022/12/06 13:04:42;;;;;;;448.90;62.08;;;2.10;99.90;;;;;;4973772;28;20056;-80
2022/12/06 13:07:25;;;;;;;462.15;55.95;;;2.00;99.90;;;;;;4996838;28;20058;-80
2022/12/06 13:10:24;;;;;;;515.75;66.47;;;2.00;99.90;;;;;;4973761;28;20046;-79
2022/12/06 13:13:04;;;;;;;557.50;75.15;;;2.10;99.90;;;;;;4964816;28;20047;-79
2022/12/06 13:15:49;;;;;;;576.75;69.82;;;2.10;99.90;;;;;;4981397;28;20084;-79
2022/12/06 13:18:36;;;;;;;479.75;62.42;;;2.10;99.90;;;;;;4990795;28;20053;-79